sensor_id;sensor_type;location;lat;lon;timestamp;pressure;altitude;pressure_sealevel;temperature;humidity
84501;BME280;74725;44.210;17.906;2024-02-23T00:01:49;97227.19;;;12.12;73.55
84501;BME280;74725;44.210;17.906;2024-02-23T00:04:15;97226.56;;;12.17;72.94
84501;BME280;74725;44.210;17.906;2024-02-23T00:06:41;97227.19;;;12.21;70.98
84501;BME280;74725;44.210;17.906;2024-02-23T00:09:07;97219.88;;;12.28;70.71
84501;BME280;74725;44.210;17.906;2024-02-23T00:11:32;97230.38;;;12.29;70.17
84501;BME280;74725;44.210;17.906;2024-02-23T00:13:59;97217.13;;;12.28;69.78
84501;BME280;74725;44.210;17.906;2024-02-23T00:16:25;97217.59;;;12.35;69.52
84501;BME280;74725;44.210;17.906;2024-02-23T00:18:51;97218.34;;;12.36;70.07
84501;BME280;74725;44.210;17.906;2024-02-23T00:21:17;97212.25;;;12.32;69.57
84501;BME280;74725;44.210;17.906;2024-02-23T00:23:43;97212.22;;;12.41;69.18
84501;BME280;74725;44.210;17.906;2024-02-23T00:26:09;97204.16;;;12.37;68.85
84501;BME280;74725;44.210;17.906;2024-02-23T00:28:34;97199.72;;;12.40;69.28
84501;BME280;74725;44.210;17.906;2024-02-23T00:31:00;97204.59;;;12.45;69.50
84501;BME280;74725;44.210;17.906;2024-02-23T00:33:25;97206.13;;;12.46;69.37
84501;BME280;74725;44.210;17.906;2024-02-23T00:35:51;97206.88;;;12.56;68.62
84501;BME280;74725;44.210;17.906;2024-02-23T00:38:17;97190.84;;;12.54;68.69
84501;BME280;74725;44.210;17.906;2024-02-23T00:40:42;97197.72;;;12.59;68.09
84501;BME280;74725;44.210;17.906;2024-02-23T00:43:08;97196.06;;;12.52;68.66
84501;BME280;74725;44.210;17.906;2024-02-23T00:45:34;97188.25;;;12.51;69.11
84501;BME280;74725;44.210;17.906;2024-02-23T00:47:59;97191.63;;;12.55;69.28
84501;BME280;74725;44.210;17.906;2024-02-23T00:50:25;97181.84;;;12.54;69.78
84501;BME280;74725;44.210;17.906;2024-02-23T00:52:52;97187.94;;;12.58;70.55
84501;BME280;74725;44.210;17.906;2024-02-23T00:55:19;97188.69;;;12.58;70.66
84501;BME280;74725;44.210;17.906;2024-02-23T00:57:46;97185.94;;;12.58;70.96
84501;BME280;74725;44.210;17.906;2024-02-23T01:00:12;97186.75;;;12.59;71.13
84501;BME280;74725;44.210;17.906;2024-02-23T01:02:38;97185.94;;;12.58;72.78
84501;BME280;74725;44.210;17.906;2024-02-23T01:05:05;97181.53;;;12.61;72.00
84501;BME280;74725;44.210;17.906;2024-02-23T01:07:31;97176.03;;;12.61;72.85
84501;BME280;74725;44.210;17.906;2024-02-23T01:09:57;97177.28;;;12.60;73.51
84501;BME280;74725;44.210;17.906;2024-02-23T01:12:24;97170.69;;;12.66;73.43
84501;BME280;74725;44.210;17.906;2024-02-23T01:14:49;97165.22;;;12.66;73.49
84501;BME280;74725;44.210;17.906;2024-02-23T01:17:15;97159.09;;;12.71;74.94
84501;BME280;74725;44.210;17.906;2024-02-23T01:19:41;97155.09;;;12.82;73.98
84501;BME280;74725;44.210;17.906;2024-02-23T01:22:08;97156.13;;;12.84;73.69
84501;BME280;74725;44.210;17.906;2024-02-23T01:24:33;97150.03;;;12.89;73.57
84501;BME280;74725;44.210;17.906;2024-02-23T01:26:59;97152.66;;;12.75;74.02
84501;BME280;74725;44.210;17.906;2024-02-23T01:29:25;97146.28;;;12.68;74.26
84501;BME280;74725;44.210;17.906;2024-02-23T01:31:51;97137.75;;;12.66;74.32
84501;BME280;74725;44.210;17.906;2024-02-23T01:34:20;97143.25;;;12.57;74.71
84501;BME280;74725;44.210;17.906;2024-02-23T01:36:45;97135.16;;;12.63;74.63
84501;BME280;74725;44.210;17.906;2024-02-23T01:39:11;97129.34;;;12.61;74.40
84501;BME280;74725;44.210;17.906;2024-02-23T01:41:36;97137.91;;;12.63;73.83
84501;BME280;74725;44.210;17.906;2024-02-23T01:44:02;97131.66;;;12.62;73.29
84501;BME280;74725;44.210;17.906;2024-02-23T01:46:28;97130.59;;;12.60;73.03
84501;BME280;74725;44.210;17.906;2024-02-23T01:48:53;97119.59;;;12.60;73.08
84501;BME280;74725;44.210;17.906;2024-02-23T01:51:19;97131.38;;;12.51;72.54
84501;BME280;74725;44.210;17.906;2024-02-23T01:53:46;97118.69;;;12.63;72.41
84501;BME280;74725;44.210;17.906;2024-02-23T01:56:12;97119.88;;;12.62;72.20
84501;BME280;74725;44.210;17.906;2024-02-23T01:58:43;97119.00;;;12.56;72.37
84501;BME280;74725;44.210;17.906;2024-02-23T02:01:10;97111.56;;;12.47;72.54
84501;BME280;74725;44.210;17.906;2024-02-23T02:03:38;97109.72;;;12.44;73.06
84501;BME280;74725;44.210;17.906;2024-02-23T02:06:05;97106.38;;;12.40;72.92
84501;BME280;74725;44.210;17.906;2024-02-23T02:08:33;97110.19;;;12.33;73.26
84501;BME280;74725;44.210;17.906;2024-02-23T02:10:59;97106.22;;;12.34;72.97
84501;BME280;74725;44.210;17.906;2024-02-23T02:13:25;97101.03;;;12.45;72.88
84501;BME280;74725;44.210;17.906;2024-02-23T02:15:50;97100.91;;;12.40;72.74
84501;BME280;74725;44.210;17.906;2024-02-23T02:18:16;97092.66;;;12.40;72.82
84501;BME280;74725;44.210;17.906;2024-02-23T02:20:51;97087.13;;;12.49;72.51
84501;BME280;74725;44.210;17.906;2024-02-23T02:23:17;97094.44;;;12.52;71.74
84501;BME280;74725;44.210;17.906;2024-02-23T02:25:43;97091.53;;;12.56;70.88
84501;BME280;74725;44.210;17.906;2024-02-23T02:28:09;97090.91;;;12.61;71.12
84501;BME280;74725;44.210;17.906;2024-02-23T02:30:34;97090.75;;;12.64;70.92
84501;BME280;74725;44.210;17.906;2024-02-23T02:33:00;97094.88;;;12.60;70.93
84501;BME280;74725;44.210;17.906;2024-02-23T02:35:25;97084.78;;;12.66;70.67
84501;BME280;74725;44.210;17.906;2024-02-23T02:37:51;97088.59;;;12.68;70.13
84501;BME280;74725;44.210;17.906;2024-02-23T02:40:16;97076.22;;;12.73;70.08
84501;BME280;74725;44.210;17.906;2024-02-23T02:42:42;97082.94;;;12.72;71.58
84501;BME280;74725;44.210;17.906;2024-02-23T02:45:07;97086.00;;;12.74;70.29
84501;BME280;74725;44.210;17.906;2024-02-23T02:47:33;97089.22;;;12.63;71.15
84501;BME280;74725;44.210;17.906;2024-02-23T02:49:59;97082.81;;;12.66;70.85
84501;BME280;74725;44.210;17.906;2024-02-23T02:52:24;97078.66;;;12.71;70.25
84501;BME280;74725;44.210;17.906;2024-02-23T02:54:50;97075.16;;;12.70;70.65
84501;BME280;74725;44.210;17.906;2024-02-23T02:57:16;97091.47;;;12.74;69.84
84501;BME280;74725;44.210;17.906;2024-02-23T02:59:41;97096.16;;;12.83;69.50
84501;BME280;74725;44.210;17.906;2024-02-23T03:02:07;97091.44;;;12.83;69.10
84501;BME280;74725;44.210;17.906;2024-02-23T03:04:32;97079.53;;;12.86;68.97
84501;BME280;74725;44.210;17.906;2024-02-23T03:06:58;97084.53;;;12.88;69.60
84501;BME280;74725;44.210;17.906;2024-02-23T03:09:24;97081.34;;;12.89;69.65
84501;BME280;74725;44.210;17.906;2024-02-23T03:11:49;97077.47;;;12.96;68.50
84501;BME280;74725;44.210;17.906;2024-02-23T03:14:15;97093.78;;;13.00;68.11
84501;BME280;74725;44.210;17.906;2024-02-23T03:16:43;97089.53;;;12.98;67.62
84501;BME280;74725;44.210;17.906;2024-02-23T03:19:09;97084.31;;;13.01;68.04
84501;BME280;74725;44.210;17.906;2024-02-23T03:21:34;97067.81;;;13.01;67.33
84501;BME280;74725;44.210;17.906;2024-02-23T03:24:00;97069.06;;;13.00;67.68
84501;BME280;74725;44.210;17.906;2024-02-23T03:26:25;97084.31;;;13.01;68.10
84501;BME280;74725;44.210;17.906;2024-02-23T03:28:51;97072.56;;;13.00;67.53
84501;BME280;74725;44.210;17.906;2024-02-23T03:31:17;97075.31;;;13.00;67.59
84501;BME280;74725;44.210;17.906;2024-02-23T03:33:42;97060.66;;;13.03;67.19
84501;BME280;74725;44.210;17.906;2024-02-23T03:36:08;97057.72;;;13.07;67.87
84501;BME280;74725;44.210;17.906;2024-02-23T03:38:33;97044.00;;;13.07;67.64
84501;BME280;74725;44.210;17.906;2024-02-23T03:40:59;97056.03;;;13.09;67.22
84501;BME280;74725;44.210;17.906;2024-02-23T03:43:25;97058.78;;;13.09;66.44
84501;BME280;74725;44.210;17.906;2024-02-23T03:45:52;97058.63;;;13.13;66.01
84501;BME280;74725;44.210;17.906;2024-02-23T03:48:17;97066.22;;;13.18;65.75
84501;BME280;74725;44.210;17.906;2024-02-23T03:50:43;97067.56;;;13.22;65.64
84501;BME280;74725;44.210;17.906;2024-02-23T03:53:09;97072.44;;;13.28;65.25
84501;BME280;74725;44.210;17.906;2024-02-23T03:55:34;97078.25;;;13.30;64.52
84501;BME280;74725;44.210;17.906;2024-02-23T03:58:00;97080.34;;;13.35;64.19
84501;BME280;74725;44.210;17.906;2024-02-23T04:00:25;97082.31;;;13.34;63.88
84501;BME280;74725;44.210;17.906;2024-02-23T04:02:51;97083.97;;;13.41;63.60
84501;BME280;74725;44.210;17.906;2024-02-23T04:05:17;97067.47;;;13.41;64.29
84501;BME280;74725;44.210;17.906;2024-02-23T04:07:44;97077.41;;;13.38;64.23
84501;BME280;74725;44.210;17.906;2024-02-23T04:10:09;97081.09;;;13.35;64.49
84501;BME280;74725;44.210;17.906;2024-02-23T04:12:35;97092.75;;;13.30;64.58
84501;BME280;74725;44.210;17.906;2024-02-23T04:15:00;97093.31;;;13.34;64.07
84501;BME280;74725;44.210;17.906;2024-02-23T04:17:26;97093.31;;;13.34;64.10
84501;BME280;74725;44.210;17.906;2024-02-23T04:19:51;97091.63;;;13.37;64.08
84501;BME280;74725;44.210;17.906;2024-02-23T04:22:17;97095.25;;;13.43;63.88
84501;BME280;74725;44.210;17.906;2024-02-23T04:24:43;97097.72;;;13.41;63.36
84501;BME280;74725;44.210;17.906;2024-02-23T04:27:08;97097.56;;;13.44;63.44
84501;BME280;74725;44.210;17.906;2024-02-23T04:29:34;97104.72;;;13.42;63.95
84501;BME280;74725;44.210;17.906;2024-02-23T04:32:01;97096.78;;;13.44;63.33
84501;BME280;74725;44.210;17.906;2024-02-23T04:34:27;97089.75;;;13.43;63.37
84501;BME280;74725;44.210;17.906;2024-02-23T04:36:53;97089.47;;;13.41;63.63
84501;BME280;74725;44.210;17.906;2024-02-23T04:39:19;97090.81;;;13.45;64.08
84501;BME280;74725;44.210;17.906;2024-02-23T04:41:44;97101.06;;;13.45;64.04
84501;BME280;74725;44.210;17.906;2024-02-23T04:44:10;97087.41;;;13.51;63.24
84501;BME280;74725;44.210;17.906;2024-02-23T04:46:36;97090.75;;;13.55;63.46
84501;BME280;74725;44.210;17.906;2024-02-23T04:49:01;97104.03;;;13.56;64.64
84501;BME280;74725;44.210;17.906;2024-02-23T04:51:27;97098.22;;;13.54;64.22
84501;BME280;74725;44.210;17.906;2024-02-23T04:53:53;97092.63;;;13.49;63.95
84501;BME280;74725;44.210;17.906;2024-02-23T04:56:19;97090.34;;;13.47;63.99
84501;BME280;74725;44.210;17.906;2024-02-23T04:58:44;97087.41;;;13.51;63.79
84501;BME280;74725;44.210;17.906;2024-02-23T05:01:10;97095.66;;;13.51;63.50
84501;BME280;74725;44.210;17.906;2024-02-23T05:03:36;97086.97;;;13.52;64.25
84501;BME280;74725;44.210;17.906;2024-02-23T05:06:05;97100.22;;;13.54;62.91
84501;BME280;74725;44.210;17.906;2024-02-23T05:08:31;97099.00;;;13.55;63.34
84501;BME280;74725;44.210;17.906;2024-02-23T05:10:57;97101.28;;;13.56;63.09
84501;BME280;74725;44.210;17.906;2024-02-23T05:13:23;97106.47;;;13.54;62.85
84501;BME280;74725;44.210;17.906;2024-02-23T05:15:49;97084.78;;;13.56;62.91
84501;BME280;74725;44.210;17.906;2024-02-23T05:18:14;97100.53;;;13.56;62.99
84501;BME280;74725;44.210;17.906;2024-02-23T05:20:40;97102.53;;;13.55;62.97
84501;BME280;74725;44.210;17.906;2024-02-23T05:23:05;97102.03;;;13.57;63.62
84501;BME280;74725;44.210;17.906;2024-02-23T05:25:31;97107.06;;;13.58;63.91
84501;BME280;74725;44.210;17.906;2024-02-23T05:27:56;97105.56;;;13.57;63.74
84501;BME280;74725;44.210;17.906;2024-02-23T05:30:22;97117.66;;;13.51;63.93
84501;BME280;74725;44.210;17.906;2024-02-23T05:32:48;97121.38;;;13.48;64.23
84501;BME280;74725;44.210;17.906;2024-02-23T05:35:14;97119.38;;;13.48;64.62
84501;BME280;74725;44.210;17.906;2024-02-23T05:37:41;97112.22;;;13.41;65.39
84501;BME280;74725;44.210;17.906;2024-02-23T05:40:07;97106.63;;;13.36;64.49
84501;BME280;74725;44.210;17.906;2024-02-23T05:42:36;97100.34;;;13.35;64.83
84501;BME280;74725;44.210;17.906;2024-02-23T05:45:02;97105.91;;;13.26;65.08
84501;BME280;74725;44.210;17.906;2024-02-23T05:47:33;97113.41;;;13.26;65.45
84501;BME280;74725;44.210;17.906;2024-02-23T05:49:58;97121.00;;;13.31;65.02
84501;BME280;74725;44.210;17.906;2024-02-23T05:52:24;97099.00;;;13.31;64.86
84501;BME280;74725;44.210;17.906;2024-02-23T05:54:49;97104.81;;;13.33;64.73
84501;BME280;74725;44.210;17.906;2024-02-23T05:57:17;97105.25;;;13.31;65.00
84501;BME280;74725;44.210;17.906;2024-02-23T05:59:42;97120.66;;;13.38;64.98
84501;BME280;74725;44.210;17.906;2024-02-23T06:02:08;97121.22;;;13.42;65.55
84501;BME280;74725;44.210;17.906;2024-02-23T06:04:34;97122.75;;;13.43;65.13
84501;BME280;74725;44.210;17.906;2024-02-23T06:07:01;97129.00;;;13.43;64.71
84501;BME280;74725;44.210;17.906;2024-02-23T06:09:27;97127.81;;;13.44;64.75
84501;BME280;74725;44.210;17.906;2024-02-23T06:11:53;97128.38;;;13.49;65.50
84501;BME280;74725;44.210;17.906;2024-02-23T06:14:18;97132.53;;;13.44;65.95
84501;BME280;74725;44.210;17.906;2024-02-23T06:16:44;97140.63;;;13.48;65.79
84501;BME280;74725;44.210;17.906;2024-02-23T06:19:10;97140.22;;;13.40;67.84
84501;BME280;74725;44.210;17.906;2024-02-23T06:21:36;97142.94;;;13.40;68.93
84501;BME280;74725;44.210;17.906;2024-02-23T06:24:01;97145.50;;;13.43;69.54
84501;BME280;74725;44.210;17.906;2024-02-23T06:26:28;97142.41;;;13.51;68.77
84501;BME280;74725;44.210;17.906;2024-02-23T06:28:53;97146.53;;;13.55;67.71
84501;BME280;74725;44.210;17.906;2024-02-23T06:31:19;97148.97;;;13.53;68.40
84501;BME280;74725;44.210;17.906;2024-02-23T06:33:45;97147.28;;;13.56;68.85
84501;BME280;74725;44.210;17.906;2024-02-23T06:36:14;97146.75;;;13.66;69.05
84501;BME280;74725;44.210;17.906;2024-02-23T06:38:41;97146.28;;;13.68;70.36
84501;BME280;74725;44.210;17.906;2024-02-23T06:41:06;97147.63;;;13.73;69.95
84501;BME280;74725;44.210;17.906;2024-02-23T06:43:35;97150.38;;;13.73;71.55
84501;BME280;74725;44.210;17.906;2024-02-23T06:46:06;97153.84;;;13.82;70.49
84501;BME280;74725;44.210;17.906;2024-02-23T06:48:32;97154.22;;;13.90;70.54
84501;BME280;74725;44.210;17.906;2024-02-23T06:50:58;97152.81;;;13.94;71.30
84501;BME280;74725;44.210;17.906;2024-02-23T06:53:24;97163.00;;;14.03;71.33
84501;BME280;74725;44.210;17.906;2024-02-23T06:55:50;97159.19;;;14.01;71.78
84501;BME280;74725;44.210;17.906;2024-02-23T06:58:15;97164.47;;;14.13;71.12
84501;BME280;74725;44.210;17.906;2024-02-23T07:00:42;97158.84;;;14.23;71.77
84501;BME280;74725;44.210;17.906;2024-02-23T07:03:08;97148.91;;;14.25;72.19
84501;BME280;74725;44.210;17.906;2024-02-23T07:05:33;97157.94;;;14.40;71.49
84501;BME280;74725;44.210;17.906;2024-02-23T07:08:02;97153.56;;;14.49;70.90
84501;BME280;74725;44.210;17.906;2024-02-23T07:10:28;97162.28;;;14.47;71.44
84501;BME280;74725;44.210;17.906;2024-02-23T07:12:54;97154.44;;;14.55;72.59
84501;BME280;74725;44.210;17.906;2024-02-23T07:15:21;97151.22;;;14.56;72.55
84501;BME280;74725;44.210;17.906;2024-02-23T07:17:47;97145.31;;;14.63;71.78
84501;BME280;74725;44.210;17.906;2024-02-23T07:20:13;97157.41;;;14.66;72.58
84501;BME280;74725;44.210;17.906;2024-02-23T07:22:39;97151.63;;;14.64;72.18
84501;BME280;74725;44.210;17.906;2024-02-23T07:25:05;97146.56;;;14.77;71.35
84501;BME280;74725;44.210;17.906;2024-02-23T07:27:31;97144.94;;;14.71;70.14
84501;BME280;74725;44.210;17.906;2024-02-23T07:29:57;97150.25;;;14.74;69.93
84501;BME280;74725;44.210;17.906;2024-02-23T07:32:23;97149.81;;;14.76;69.66
84501;BME280;74725;44.210;17.906;2024-02-23T07:34:48;97152.25;;;14.88;68.59
84501;BME280;74725;44.210;17.906;2024-02-23T07:37:15;97150.94;;;14.84;68.85
84501;BME280;74725;44.210;17.906;2024-02-23T07:39:40;97149.63;;;14.79;68.80
84501;BME280;74725;44.210;17.906;2024-02-23T07:42:06;97136.09;;;14.81;68.94
84501;BME280;74725;44.210;17.906;2024-02-23T07:44:36;97146.84;;;14.79;69.74
84501;BME280;74725;44.210;17.906;2024-02-23T07:47:03;97145.81;;;14.77;62.10
84501;BME280;74725;44.210;17.906;2024-02-23T07:49:28;97141.06;;;14.77;65.82
84501;BME280;74725;44.210;17.906;2024-02-23T07:51:54;97142.00;;;14.74;64.59
84501;BME280;74725;44.210;17.906;2024-02-23T07:54:20;97136.41;;;14.68;65.09
84501;BME280;74725;44.210;17.906;2024-02-23T07:56:45;97138.47;;;14.74;62.27
84501;BME280;74725;44.210;17.906;2024-02-23T07:59:11;97135.16;;;14.84;61.88
84501;BME280;74725;44.210;17.906;2024-02-23T08:01:37;97135.41;;;14.86;58.60
84501;BME280;74725;44.210;17.906;2024-02-23T08:04:02;97137.41;;;15.01;58.52
84501;BME280;74725;44.210;17.906;2024-02-23T08:06:28;97132.44;;;15.05;58.88
84501;BME280;74725;44.210;17.906;2024-02-23T08:08:54;97134.75;;;15.06;55.34
84501;BME280;74725;44.210;17.906;2024-02-23T08:11:20;97133.88;;;15.15;54.56
84501;BME280;74725;44.210;17.906;2024-02-23T08:13:46;97131.72;;;15.25;53.61
84501;BME280;74725;44.210;17.906;2024-02-23T08:16:12;97116.81;;;15.52;51.96
84501;BME280;74725;44.210;17.906;2024-02-23T08:18:39;97117.81;;;15.69;52.85
84501;BME280;74725;44.210;17.906;2024-02-23T08:21:05;97109.25;;;15.67;51.86
84501;BME280;74725;44.210;17.906;2024-02-23T08:23:31;97113.94;;;15.81;51.86
84501;BME280;74725;44.210;17.906;2024-02-23T08:25:57;97119.81;;;15.89;51.52
84501;BME280;74725;44.210;17.906;2024-02-23T08:28:24;97113.38;;;15.98;50.45
84501;BME280;74725;44.210;17.906;2024-02-23T08:30:51;97112.06;;;15.93;49.52
84501;BME280;74725;44.210;17.906;2024-02-23T08:33:19;97120.72;;;16.06;49.86
84501;BME280;74725;44.210;17.906;2024-02-23T08:35:45;97118.63;;;15.96;49.18
84501;BME280;74725;44.210;17.906;2024-02-23T08:38:14;97113.41;;;15.77;48.83
84501;BME280;74725;44.210;17.906;2024-02-23T08:40:41;97122.63;;;15.74;49.49
84501;BME280;74725;44.210;17.906;2024-02-23T08:43:07;97123.34;;;15.69;50.82
84501;BME280;74725;44.210;17.906;2024-02-23T08:45:33;97126.72;;;15.64;51.12
84501;BME280;74725;44.210;17.906;2024-02-23T08:47:59;97118.03;;;15.65;52.22
84501;BME280;74725;44.210;17.906;2024-02-23T08:50:24;97135.16;;;15.55;52.69
84501;BME280;74725;44.210;17.906;2024-02-23T08:52:50;97134.13;;;15.52;54.34
84501;BME280;74725;44.210;17.906;2024-02-23T08:55:15;97145.16;;;15.52;56.48
84501;BME280;74725;44.210;17.906;2024-02-23T08:57:41;97146.13;;;15.49;60.68
84501;BME280;74725;44.210;17.906;2024-02-23T09:00:07;97150.19;;;15.54;61.60
84501;BME280;74725;44.210;17.906;2024-02-23T09:02:33;97145.09;;;15.47;62.97
84501;BME280;74725;44.210;17.906;2024-02-23T09:05:01;97146.19;;;15.55;63.75
84501;BME280;74725;44.210;17.906;2024-02-23T09:07:27;97142.69;;;15.54;64.79
84501;BME280;74725;44.210;17.906;2024-02-23T09:09:52;97138.22;;;15.57;65.40
84501;BME280;74725;44.210;17.906;2024-02-23T09:12:19;97140.69;;;15.55;66.24
84501;BME280;74725;44.210;17.906;2024-02-23T09:14:44;97134.09;;;15.67;64.61
84501;BME280;74725;44.210;17.906;2024-02-23T09:17:10;97133.44;;;15.57;63.83
84501;BME280;74725;44.210;17.906;2024-02-23T09:19:37;97142.09;;;15.65;63.92
84501;BME280;74725;44.210;17.906;2024-02-23T09:22:02;97136.81;;;15.47;63.54
84501;BME280;74725;44.210;17.906;2024-02-23T09:24:28;97126.88;;;15.55;64.69
84501;BME280;74725;44.210;17.906;2024-02-23T09:26:54;97135.66;;;15.53;63.91
84501;BME280;74725;44.210;17.906;2024-02-23T09:29:20;97137.72;;;15.58;65.56
84501;BME280;74725;44.210;17.906;2024-02-23T09:31:47;97142.69;;;15.54;63.29
84501;BME280;74725;44.210;17.906;2024-02-23T09:34:13;97142.38;;;15.52;63.33
84501;BME280;74725;44.210;17.906;2024-02-23T09:36:38;97140.41;;;15.53;65.50
84501;BME280;74725;44.210;17.906;2024-02-23T09:39:04;97124.88;;;15.55;63.56
84501;BME280;74725;44.210;17.906;2024-02-23T09:41:30;97138.31;;;15.48;64.47
84501;BME280;74725;44.210;17.906;2024-02-23T09:43:59;97128.19;;;15.39;63.37
84501;BME280;74725;44.210;17.906;2024-02-23T09:46:25;97132.75;;;15.42;64.09
84501;BME280;74725;44.210;17.906;2024-02-23T09:48:51;97115.22;;;15.45;63.50
84501;BME280;74725;44.210;17.906;2024-02-23T09:51:17;97106.97;;;15.45;60.68
84501;BME280;74725;44.210;17.906;2024-02-23T09:53:44;97092.25;;;15.54;61.29
84501;BME280;74725;44.210;17.906;2024-02-23T09:56:11;97094.59;;;15.61;60.24
84501;BME280;74725;44.210;17.906;2024-02-23T09:58:37;97102.06;;;15.75;58.04
84501;BME280;74725;44.210;17.906;2024-02-23T10:01:03;97098.44;;;15.84;57.48
84501;BME280;74725;44.210;17.906;2024-02-23T10:03:30;97098.06;;;15.97;56.61
84501;BME280;74725;44.210;17.906;2024-02-23T10:05:56;97100.72;;;16.11;55.09
84501;BME280;74725;44.210;17.906;2024-02-23T10:08:22;97092.47;;;16.17;54.38
84501;BME280;74725;44.210;17.906;2024-02-23T10:13:30;97085.56;;;16.27;52.21
84501;BME280;74725;44.210;17.906;2024-02-23T10:15:56;97096.81;;;16.24;52.07
84501;BME280;74725;44.210;17.906;2024-02-23T10:18:22;97082.38;;;16.34;51.68
84501;BME280;74725;44.210;17.906;2024-02-23T10:20:47;97086.78;;;16.52;50.75
84501;BME280;74725;44.210;17.906;2024-02-23T10:23:17;97087.84;;;16.60;50.79
84501;BME280;74725;44.210;17.906;2024-02-23T10:25:43;97087.16;;;16.66;51.54
84501;BME280;74725;44.210;17.906;2024-02-23T10:28:08;97083.66;;;16.71;49.99
84501;BME280;74725;44.210;17.906;2024-02-23T10:30:37;97078.63;;;16.69;49.49
84501;BME280;74725;44.210;17.906;2024-02-23T10:33:06;97066.50;;;16.93;48.81
84501;BME280;74725;44.210;17.906;2024-02-23T10:35:32;97067.00;;;16.91;49.17
84501;BME280;74725;44.210;17.906;2024-02-23T10:38:01;97063.97;;;17.32;47.85
84501;BME280;74725;44.210;17.906;2024-02-23T10:40:34;97048.81;;;17.76;46.65
84501;BME280;74725;44.210;17.906;2024-02-23T10:43:36;97056.97;;;18.13;46.87
84501;BME280;74725;44.210;17.906;2024-02-23T10:46:05;97058.00;;;18.32;45.18
84501;BME280;74725;44.210;17.906;2024-02-23T10:48:34;97061.00;;;18.57;44.40
84501;BME280;74725;44.210;17.906;2024-02-23T10:51:02;97070.63;;;18.73;43.80
84501;BME280;74725;44.210;17.906;2024-02-23T10:53:32;97077.34;;;19.28;43.51
84501;BME280;74725;44.210;17.906;2024-02-23T10:56:00;97075.03;;;19.38;42.62
84501;BME280;74725;44.210;17.906;2024-02-23T10:58:30;97072.41;;;19.79;42.05
84501;BME280;74725;44.210;17.906;2024-02-23T11:01:00;97062.53;;;19.78;41.64
84501;BME280;74725;44.210;17.906;2024-02-23T11:03:28;97062.56;;;19.72;41.27
84501;BME280;74725;44.210;17.906;2024-02-23T11:05:54;97072.19;;;20.13;40.45
84501;BME280;74725;44.210;17.906;2024-02-23T11:08:20;97069.06;;;20.27;40.37
84501;BME280;74725;44.210;17.906;2024-02-23T11:10:49;97069.28;;;20.35;39.59
84501;BME280;74725;44.210;17.906;2024-02-23T11:13:18;97067.66;;;20.51;39.82
84501;BME280;74725;44.210;17.906;2024-02-23T11:16:01;97075.31;;;20.39;39.73
84501;BME280;74725;44.210;17.906;2024-02-23T11:18:27;97073.47;;;20.53;38.91
84501;BME280;74725;44.210;17.906;2024-02-23T11:20:54;97065.19;;;20.42;39.40
84501;BME280;74725;44.210;17.906;2024-02-23T11:23:22;97068.97;;;20.03;40.01
84501;BME280;74725;44.210;17.906;2024-02-23T11:26:19;97057.81;;;20.14;40.45
84501;BME280;74725;44.210;17.906;2024-02-23T11:28:49;97052.50;;;20.11;40.37
84501;BME280;74725;44.210;17.906;2024-02-23T11:31:24;97051.25;;;20.12;39.54
84501;BME280;74725;44.210;17.906;2024-02-23T11:33:57;97041.81;;;20.20;39.96
84501;BME280;74725;44.210;17.906;2024-02-23T11:36:31;97040.44;;;20.02;40.67
84501;BME280;74725;44.210;17.906;2024-02-23T11:39:02;97045.31;;;19.91;40.11
84501;BME280;74725;44.210;17.906;2024-02-23T11:41:28;97035.59;;;19.67;40.66
84501;BME280;74725;44.210;17.906;2024-02-23T11:43:55;97019.44;;;19.54;39.89
84501;BME280;74725;44.210;17.906;2024-02-23T11:46:21;97023.53;;;19.48;39.63
84501;BME280;74725;44.210;17.906;2024-02-23T11:48:48;97021.28;;;19.35;39.57
84501;BME280;74725;44.210;17.906;2024-02-23T11:51:19;97009.97;;;19.33;40.23
84501;BME280;74725;44.210;17.906;2024-02-23T11:53:46;97005.16;;;19.34;40.24
84501;BME280;74725;44.210;17.906;2024-02-23T11:56:13;97003.94;;;19.29;39.59
84501;BME280;74725;44.210;17.906;2024-02-23T11:58:42;96994.53;;;19.38;38.78
84501;BME280;74725;44.210;17.906;2024-02-23T12:01:08;97009.44;;;19.40;38.37
84501;BME280;74725;44.210;17.906;2024-02-23T12:03:34;97009.16;;;19.44;38.65
84501;BME280;74725;44.210;17.906;2024-02-23T12:06:01;96992.91;;;19.59;37.83
84501;BME280;74725;44.210;17.906;2024-02-23T12:08:30;96995.88;;;19.78;37.57
84501;BME280;74725;44.210;17.906;2024-02-23T12:10:57;96999.25;;;20.01;38.34
84501;BME280;74725;44.210;17.906;2024-02-23T12:13:26;97004.00;;;20.12;37.14
84501;BME280;74725;44.210;17.906;2024-02-23T12:15:53;96996.00;;;20.33;36.68
84501;BME280;74725;44.210;17.906;2024-02-23T12:18:22;96992.69;;;20.04;36.23
84501;BME280;74725;44.210;17.906;2024-02-23T12:21:01;96998.59;;;20.25;36.68
84501;BME280;74725;44.210;17.906;2024-02-23T12:23:37;96990.75;;;20.29;36.65
84501;BME280;74725;44.210;17.906;2024-02-23T12:26:03;96976.44;;;20.49;36.50
84501;BME280;74725;44.210;17.906;2024-02-23T12:28:28;96971.63;;;20.50;36.00
84501;BME280;74725;44.210;17.906;2024-02-23T12:31:01;96978.47;;;20.43;37.32
84501;BME280;74725;44.210;17.906;2024-02-23T12:33:28;96980.72;;;20.75;36.35
84501;BME280;74725;44.210;17.906;2024-02-23T12:35:55;96989.94;;;21.13;37.01
84501;BME280;74725;44.210;17.906;2024-02-23T12:38:24;96992.50;;;21.73;36.04
84501;BME280;74725;44.210;17.906;2024-02-23T12:40:52;96999.78;;;22.14;34.93
84501;BME280;74725;44.210;17.906;2024-02-23T12:43:19;96989.97;;;22.27;34.19
84501;BME280;74725;44.210;17.906;2024-02-23T12:45:51;97002.91;;;22.56;34.96
84501;BME280;74725;44.210;17.906;2024-02-23T12:48:18;97005.47;;;23.00;33.24
84501;BME280;74725;44.210;17.906;2024-02-23T12:50:47;96998.72;;;23.08;33.64